Flight Track Log - Related Links

Times and Time Zones

All times are in EDT time to prevent confusion due to time zone crossing. See the GJS6314 flight status page for this flight to view local times or setup timezone preferences in your user account.

Time Position Orientation Groundspeed Altitude Reporting Facility
EDT Latitude Longitude Course Direction KTS MPH feet Rate Location/Type
Mon 01:46:00 PM 35.8442 -79.0178 270° West 284 327 9,400  Level Washington Center
Mon 01:46:57 PM 35.8411 -79.1253 268° West 289 333 12,500 2,542 Climbing Washington Center
Mon 01:47:58 PM 35.8400 -79.2303 269° West 311 358 14,400 1,918 Climbing Washington Center
Mon 01:48:59 PM 35.8317 -79.3633 266° West 344 396 16,400 1,884 Climbing Washington Center
Mon 01:49:00 PM 35.8242 -79.3829 262° West  Level FlightAware Approximate
Mon 01:49:59 PM 35.8239 -79.4781 265° West 374 430 18,200  Level Washington Center
Mon 01:50:00 PM 35.8167 -79.5029 270° West  Level FlightAware Approximate
Mon 01:51:00 PM 35.8000 -79.6029 270° West  Level FlightAware Approximate
Mon 01:51:31 PM 35.7931 -79.6764 259° West 390 449 21,200  Level Atlanta Center
Mon 01:52:31 PM 35.7703 -79.8056 258° West 390 449 23,000 1,800 Climbing Atlanta Center
Mon 01:53:31 PM 35.7478 -79.9372 258° West 395 455 24,800 1,700 Climbing Atlanta Center
Mon 01:54:31 PM 35.7247 -80.0636 257° West 395 455 26,400 1,500 Climbing Atlanta Center
Mon 01:55:31 PM 35.6983 -80.2133 258° West 395 455 27,800 1,300 Climbing Atlanta Center
Mon 01:56:31 PM 35.6797 -80.3547 261° West 411 473 29,000 1,200 Climbing Atlanta Center
Mon 01:57:31 PM 35.7231 -80.4858 292° West 403 464 30,200 1,150 Climbing Atlanta Center
Mon 01:58:31 PM 35.7831 -80.6164 300° West 421 484 31,300 1,000 Climbing Atlanta Center
Mon 01:59:31 PM 35.8431 -80.7494 299° West 435 501 32,200 900 Climbing Atlanta Center
Mon 02:00:31 PM 35.9050 -80.8856 299° West 452 520 33,100 900 Climbing Atlanta Center
Mon 02:01:31 PM 35.9669 -81.0242 299° West 452 520 34,000 450 Climbing Atlanta Center
Mon 02:02:31 PM 36.0289 -81.1631 299° West 452 520 34,000 200 Level Atlanta Center
Mon 02:03:31 PM 36.0861 -81.3025 297° West 452 520 34,400 700 Climbing Atlanta Center
Mon 02:04:31 PM 36.1475 -81.4392 299° West 447 514 35,400 800 Climbing Atlanta Center
Mon 02:05:31 PM 36.2067 -81.5761 298° West 447 514 36,000 300 Climbing Atlanta Center
Mon 02:06:31 PM 36.2569 -81.6983 297° West 447 514 36,000  Level Atlanta Center
Mon 02:07:31 PM 36.3139 -81.8383 297° West 446 513 36,000  Level Atlanta Center
Mon 02:08:31 PM 36.3747 -81.9811 298° West 440 506 36,000  Level Atlanta Center
Mon 02:09:31 PM 36.4353 -82.1111 300° West 432 497 36,000  Level Atlanta Center
Mon 02:10:31 PM 36.5058 -82.2308 306° West 432 497 36,000 -149 Level Atlanta Center
Mon 02:12:52 PM 36.6683 -82.5097 306° West 435 501 35,500 -356 Descending Indianapolis Center
Mon 02:13:53 PM 36.7428 -82.6361 306° West 447 514 34,800 -683 Descending Indianapolis Center
Mon 02:14:55 PM 36.8172 -82.7625 306° West 450 518 34,100 -390 Descending Indianapolis Center
Mon 02:15:56 PM 36.8939 -82.8928 306° West 454 522 34,000 -148 Descending Indianapolis Center
Mon 02:16:57 PM 36.9778 -83.0353 306° West 471 542 33,800 -341 Descending Indianapolis Center
Mon 02:17:59 PM 37.0517 -83.1611 306° West 453 521 33,300 -488 Descending Indianapolis Center
Mon 02:19:00 PM 37.1103 -83.2964 299° West 450 518 32,800 -488 Descending Indianapolis Center
Mon 02:20:02 PM 37.1075 -83.4492 269° West 443 510 32,300 -390 Descending Indianapolis Center
Mon 02:21:03 PM 37.0942 -83.6042 264° West 447 514 32,000 -146 Descending Indianapolis Center
Mon 02:22:05 PM 37.0856 -83.7850 267° West 446 513 32,000 -244 Level Indianapolis Center
Mon 02:23:06 PM 37.1108 -83.9369 282° West 450 518 31,500 -1,317 Descending Indianapolis Center
Mon 02:24:08 PM 37.2158 -84.0294 325° Northwest 470 541 29,300 -2,293 Descending Indianapolis Center
Mon 02:25:09 PM 37.3508 -84.0450 355° North 483 556 26,800 -2,439 Descending Indianapolis Center
Mon 02:26:11 PM 37.4831 -84.0528 357° North 476 548 24,300 -1,366 Descending Indianapolis Center
Mon 02:27:12 PM 37.6083 -84.0650 356° North 451 519 24,000 -390 Descending Indianapolis Center
Mon 02:28:14 PM 37.7317 -84.0792 355° North 444 511 23,500 -774 Descending Indianapolis Center
Mon 02:29:16 PM 37.8547 -84.0917 355° North 443 510 22,400 -1,659 Descending Indianapolis Center
Mon 02:30:17 PM 37.9947 -84.1058 355° North 431 496 20,100 -2,390 Descending Indianapolis Center
Mon 02:31:19 PM 38.1069 -84.1175 355° North 406 467 17,500 -2,488 Descending Indianapolis Center
Mon 02:32:20 PM 38.2203 -84.1292 355° North 405 466 15,000 -2,439 Descending Indianapolis Center
Mon 02:33:22 PM 38.3281 -84.1406 355° North 390 449 12,500 -1,951 Descending Indianapolis Center
Mon 02:34:23 PM 38.4272 -84.1542 354° North 361 415 11,000 -732 Descending Indianapolis Center
Mon 02:35:25 PM 38.5156 -84.2136 332° Northwest 361 415 11,000  Level Indianapolis Center
Mon 02:36:27 PM 38.6047 -84.2783 330° Northwest 367 422 11,000  Level Indianapolis Center
Mon 02:37:28 PM 38.6914 -84.3522 326° Northwest 350 403 11,000  Level Indianapolis Center
Mon 02:38:30 PM 38.7614 -84.4100 327° Northwest 296 341 11,000 -293 Level Indianapolis Center
Mon 02:39:31 PM 38.8275 -84.4656 327° Northwest 281 323 10,400 -829 Descending Indianapolis Center
Mon 02:40:33 PM 38.8919 -84.5192 327° Northwest 275 316 9,300 -677 Descending Indianapolis Center
Mon 02:41:35 PM 38.9661 -84.5422 346° North 277 319 9,000 -634 Descending Indianapolis Center
Mon 02:42:36 PM 39.0400 -84.5475 357° North 268 308 8,000 -1,268 Descending Indianapolis Center
Mon 02:43:38 PM 39.1161 -84.5497 359° North 241 277 6,400 -1,548 Descending Indianapolis Center
Mon 02:44:40 PM 39.1781 -84.5519 358° North 227 261 4,800 -1,171 Descending Indianapolis Center
Mon 02:45:41 PM 39.2033 -84.6086 300° West 218 251 4,000 -829 Descending Indianapolis Center
Mon 02:46:43 PM 39.1997 -84.6714 266° West 200 230 3,100 -811 Descending Indianapolis Center
Mon 02:48:46 PM 39.1000 -84.6667 178° South 116 133 1,500 -780 Descending Cincinnati TRACON
Mon 02:50:00 PM 39.0488 -84.6678 180° South  Level Estimated
Mon 02:57:00 PM 39.0488 -84.6678 180° South  Level Estimated
Mon 02:58:00 PM 39.0488 -84.6678 180° South  Level Estimated
Mon 02:59:00 PM 39.0488 -84.6678 180° South  Level Estimated
Mon 03:00:00 PM 39.0488 -84.6678 180° South  Level Estimated
Mon 03:01:00 PM 39.0488 -84.6678 180° South  Level Estimated
Mon 03:02:00 PM 39.0488 -84.6678 180° South  Level Estimated
Mon 03:03:00 PM 39.0488 -84.6678 180° South  Level Estimated
Mon 03:04:00 PM 39.0488 -84.6678 180° South  Level Estimated
Mon 03:05:00 PM 39.0488 -84.6678 180° South  Level Estimated
Mon 03:06:00 PM 39.0488 -84.6678 180° South  Level Estimated
Mon 03:07:00 PM 39.0488 -84.6678 180° South  Level Estimated
Mon 03:08:00 PM 39.0488 -84.6678 180° South  Level Estimated
Mon 03:09:00 PM 39.0488 -84.6678 180° South  Level Estimated

Login

Don't have an account? Register now (free) for customized features, flight alerts, and more!